Time;durP1;ratioP1;P1;durP2;ratioP2;P2;SDS_P1;SDS_P2;PMS_P1;PMS_P2;Temp;Humidity;BMP_temperature;BMP_pressure;BME280_temperature;BME280_humidity;BME280_pressure;Samples;Min_cycle;Max_cycle;Signal;HPM_P1;HPM_P2
2022/06/15 00:00:42;;;;;;;3.20;2.15;;;;;;;;;;1718155;83;21073;-66
2022/06/15 00:03:09;;;;;;;3.80;2.10;;;;;;;;;;1716285;83;21475;-66
2022/06/15 00:05:35;;;;;;;4.05;2.25;;;;;;;;;;1676430;85;20977;-66
2022/06/15 00:08:02;;;;;;;4.85;2.72;;;;;;;;;;1718323;83;21070;-66
2022/06/15 00:10:28;;;;;;;2.90;2.08;;;;;;;;;;1674674;84;21030;-66
2022/06/15 00:12:55;;;;;;;3.22;2.00;;;;;;;;;;1645875;86;21490;-66
2022/06/15 00:15:21;;;;;;;4.00;2.22;;;;;;;;;;1654779;86;21040;-66
2022/06/15 00:17:47;;;;;;;3.75;2.10;;;;;;;;;;1654140;86;21048;-67
2022/06/15 00:20:14;;;;;;;3.02;1.90;;;;;;;;;;1653777;85;21560;-67
2022/06/15 00:22:41;;;;;;;5.37;2.58;;;;;;;;;;1656742;86;21065;-67
2022/06/15 00:25:08;;;;;;;4.42;2.40;;;;;;;;;;1662522;86;21109;-66
2022/06/15 00:27:35;;;;;;;4.00;2.40;;;;;;;;;;1653960;86;21052;-66
2022/06/15 00:30:01;;;;;;;3.67;2.20;;;;;;;;;;1654563;85;21005;-66
2022/06/15 00:32:29;;;;;;;3.50;2.20;;;;;;;;;;1654067;86;21049;-66
2022/06/15 00:34:56;;;;;;;4.17;2.15;;;;;;;;;;1661907;86;21081;-66
2022/06/15 00:37:22;;;;;;;4.47;2.30;;;;;;;;;;1665116;85;21055;-66
2022/06/15 00:39:48;;;;;;;5.15;2.30;;;;;;;;;;1647411;87;21037;-67
2022/06/15 00:42:14;;;;;;;6.72;2.58;;;;;;;;;;1718451;83;21541;-66
2022/06/15 00:44:42;;;;;;;3.22;2.30;;;;;;;;;;1716524;83;21183;-67
2022/06/15 00:47:11;;;;;;;3.40;2.20;;;;;;;;;;1714535;82;21028;-66
2022/06/15 00:49:44;;;;;;;5.42;2.45;;;;;;;;;;1712493;83;21114;-67
2022/06/15 00:52:11;;;;;;;5.45;2.25;;;;;;;;;;1712690;84;21061;-66
2022/06/15 00:54:37;;;;;;;4.03;1.92;;;;;;;;;;1716526;83;21050;-66
2022/06/15 00:57:04;;;;;;;3.72;2.37;;;;;;;;;;1677336;84;21053;-67
2022/06/15 00:59:35;;;;;;;2.83;1.90;;;;;;;;;;1712353;82;21615;-67
2022/06/15 01:04:52;;;;;;;2.72;1.90;;;;;;;;;;1692983;80;21625;-66
2022/06/15 01:07:21;;;;;;;2.80;1.80;;;;;;;;;;1705965;84;21546;-66
2022/06/15 01:10:02;;;;;;;3.25;2.00;;;;;;;;;;1706071;84;21523;-66
2022/06/15 01:12:30;;;;;;;3.10;2.00;;;;;;;;;;1681170;84;21088;-66
2022/06/15 01:15:02;;;;;;;2.87;1.92;;;;;;;;;;1677990;84;21084;-65
2022/06/15 01:17:46;;;;;;;3.45;2.02;;;;;;;;;;1679298;84;21044;-65
2022/06/15 01:20:17;;;;;;;3.00;2.20;;;;;;;;;;1678097;85;21115;-66
2022/06/15 01:22:54;;;;;;;3.42;2.00;;;;;;;;;;1695249;84;21032;-66
2022/06/15 01:25:40;;;;;;;3.05;1.92;;;;;;;;;;1676876;84;21091;-66
2022/06/15 01:28:25;;;;;;;3.15;1.95;;;;;;;;;;1678424;84;21600;-66
2022/06/15 01:30:59;;;;;;;4.47;2.15;;;;;;;;;;1677835;85;21127;-66
2022/06/15 01:33:33;;;;;;;3.35;2.10;;;;;;;;;;1679478;84;21060;-66
2022/06/15 01:36:18;;;;;;;4.05;2.10;;;;;;;;;;1677220;84;21551;-65
2022/06/15 01:39:03;;;;;;;3.55;2.20;;;;;;;;;;1678131;85;21626;-66
2022/06/15 01:41:34;;;;;;;4.00;2.20;;;;;;;;;;1677865;85;21603;-66
2022/06/15 01:44:09;;;;;;;3.00;2.00;;;;;;;;;;1677519;84;21056;-67
2022/06/15 01:46:37;;;;;;;4.12;2.30;;;;;;;;;;1692422;84;21535;-66
2022/06/15 01:49:03;;;;;;;3.25;2.12;;;;;;;;;;1706386;84;21031;-66
2022/06/15 01:51:30;;;;;;;3.55;2.25;;;;;;;;;;1698583;84;21087;-67
2022/06/15 01:53:58;;;;;;;2.70;1.90;;;;;;;;;;1693620;84;21068;-66
2022/06/15 01:56:28;;;;;;;3.05;2.02;;;;;;;;;;1681765;84;21065;-66
2022/06/15 01:58:56;;;;;;;3.40;2.30;;;;;;;;;;1678018;85;21107;-66
2022/06/15 02:01:30;;;;;;;3.25;2.00;;;;;;;;;;1678063;85;21023;-66
2022/06/15 02:04:01;;;;;;;7.08;2.45;;;;;;;;;;1668695;84;21068;-65
2022/06/15 02:06:33;;;;;;;3.80;1.80;;;;;;;;;;1687977;84;21052;-65
2022/06/15 02:09:08;;;;;;;2.92;2.42;;;;;;;;;;1704850;84;21075;-65
2022/06/15 02:11:36;;;;;;;4.78;2.00;;;;;;;;;;1703740;84;21067;-66
2022/06/15 02:14:08;;;;;;;3.35;2.37;;;;;;;;;;1692714;84;21119;-66
2022/06/15 02:16:40;;;;;;;3.25;2.00;;;;;;;;;;1676175;84;21104;-66
2022/06/15 02:19:11;;;;;;;3.58;2.10;;;;;;;;;;1676365;85;21068;-65
2022/06/15 02:21:39;;;;;;;4.50;2.00;;;;;;;;;;1677199;84;21056;-65
2022/06/15 02:24:05;;;;;;;3.83;1.90;;;;;;;;;;1675968;84;21099;-65
2022/06/15 02:26:34;;;;;;;3.37;2.02;;;;;;;;;;1682637;84;21008;-65
2022/06/15 02:29:02;;;;;;;4.65;2.10;;;;;;;;;;1704832;84;21543;-66
2022/06/15 02:31:30;;;;;;;3.08;1.80;;;;;;;;;;1703605;84;21087;-66
2022/06/15 02:33:59;;;;;;;2.12;1.82;;;;;;;;;;1695099;84;21048;-65
2022/06/15 02:36:25;;;;;;;2.90;1.90;;;;;;;;;;1670731;84;21701;-65
2022/06/15 02:38:53;;;;;;;4.25;1.90;;;;;;;;;;1704620;84;21052;-65
2022/06/15 02:41:23;;;;;;;2.72;2.00;;;;;;;;;;1705041;83;21075;-65
2022/06/15 02:43:51;;;;;;;3.80;1.98;;;;;;;;;;1697108;84;21039;-65
2022/06/15 02:46:17;;;;;;;3.27;2.12;;;;;;;;;;1678629;84;21636;-65
2022/06/15 02:48:43;;;;;;;4.97;2.20;;;;;;;;;;1669008;85;21575;-66
2022/06/15 02:51:12;;;;;;;2.60;1.87;;;;;;;;;;1676504;85;21119;-65
2022/06/15 02:53:40;;;;;;;4.97;2.00;;;;;;;;;;1675613;85;21044;-65
2022/06/15 02:56:07;;;;;;;3.00;2.10;;;;;;;;;;1685859;84;21044;-66
2022/06/15 02:58:35;;;;;;;3.72;2.30;;;;;;;;;;1676519;85;21554;-66
2022/06/15 03:01:01;;;;;;;3.98;2.17;;;;;;;;;;1676840;85;21064;-66
2022/06/15 03:03:29;;;;;;;3.80;1.90;;;;;;;;;;1678644;83;21169;-66
2022/06/15 03:05:57;;;;;;;3.35;2.17;;;;;;;;;;1695866;83;21067;-66
2022/06/15 03:08:26;;;;;;;2.72;2.10;;;;;;;;;;1678993;84;21068;-66
2022/06/15 03:10:54;;;;;;;2.17;1.82;;;;;;;;;;1674662;85;21555;-67
2022/06/15 03:13:23;;;;;;;3.08;2.00;;;;;;;;;;1676846;84;21563;-66
2022/06/15 03:15:49;;;;;;;3.17;2.15;;;;;;;;;;1676581;85;21043;-66
2022/06/15 03:18:16;;;;;;;2.65;1.85;;;;;;;;;;1681899;84;21073;-66
2022/06/15 03:20:42;;;;;;;2.83;2.10;;;;;;;;;;1682660;84;21023;-66
2022/06/15 03:23:10;;;;;;;2.92;2.20;;;;;;;;;;1659212;84;21075;-66
2022/06/15 03:25:36;;;;;;;3.98;2.20;;;;;;;;;;1681421;84;21056;-66
2022/06/15 03:28:04;;;;;;;4.53;2.10;;;;;;;;;;1695870;84;21064;-66
2022/06/15 03:30:31;;;;;;;2.80;2.08;;;;;;;;;;1704510;84;21012;-66
2022/06/15 03:32:59;;;;;;;2.60;1.82;;;;;;;;;;1677553;84;21076;-67
2022/06/15 03:35:34;;;;;;;2.80;1.98;;;;;;;;;;1675002;86;21580;-67
2022/06/15 03:37:55;;;;;;;3.10;2.50;;;;;;;;;;1674371;85;21078;-66
2022/06/15 03:40:22;;;;;;;2.55;1.90;;;;;;;;;;1591135;90;21590;-66
2022/06/15 03:42:50;;;;;;;3.30;2.10;;;;;;;;;;1687976;84;21610;-66
2022/06/15 03:45:18;;;;;;;2.60;2.00;;;;;;;;;;1705041;84;20997;-66
2022/06/15 03:47:44;;;;;;;5.35;2.20;;;;;;;;;;1703013;84;21052;-66
2022/06/15 03:50:11;;;;;;;4.10;2.58;;;;;;;;;;1683470;84;21067;-66
2022/06/15 03:52:37;;;;;;;2.62;2.00;;;;;;;;;;1676410;84;21005;-65
2022/06/15 03:55:07;;;;;;;2.30;1.72;;;;;;;;;;1675224;84;21100;-68
2022/06/15 03:57:33;;;;;;;5.47;2.00;;;;;;;;;;1676553;84;21120;-65
2022/06/15 04:00:03;;;;;;;3.92;1.98;;;;;;;;;;1676444;85;21083;-66
2022/06/15 04:02:31;;;;;;;3.40;2.08;;;;;;;;;;1674257;84;21112;-66
2022/06/15 04:05:00;;;;;;;4.33;2.40;;;;;;;;;;1679602;85;21135;-65
2022/06/15 04:10:15;;;;;;;2.83;1.98;;;;;;;;;;1651639;87;21053;-66
2022/06/15 04:12:44;;;;;;;4.25;2.12;;;;;;;;;;1667873;85;21096;-66
2022/06/15 04:15:12;;;;;;;2.70;1.70;;;;;;;;;;1679058;85;20993;-66
2022/06/15 04:17:40;;;;;;;4.00;2.40;;;;;;;;;;1662925;85;21120;-66
2022/06/15 04:20:33;;;;;;;3.27;1.90;;;;;;;;;;1673035;85;21551;-66
2022/06/15 04:23:11;;;;;;;3.37;2.20;;;;;;;;;;1656225;85;21100;-66
2022/06/15 04:25:39;;;;;;;5.47;2.15;;;;;;;;;;1670097;85;21135;-65
2022/06/15 04:28:05;;;;;;;2.90;2.20;;;;;;;;;;1655832;85;21046;-67
2022/06/15 04:30:33;;;;;;;2.58;1.90;;;;;;;;;;1651702;87;21144;-67
2022/06/15 04:32:59;;;;;;;2.40;1.80;;;;;;;;;;1650216;86;21060;-66
2022/06/15 04:35:31;;;;;;;3.27;2.10;;;;;;;;;;1650995;85;21555;-67
2022/06/15 04:37:59;;;;;;;4.10;1.82;;;;;;;;;;1662650;85;21107;-65
2022/06/15 04:40:27;;;;;;;4.10;2.12;;;;;;;;;;1678790;85;21112;-66
2022/06/15 04:42:54;;;;;;;5.30;2.20;;;;;;;;;;1658145;85;21049;-65
2022/06/15 04:45:21;;;;;;;3.67;2.02;;;;;;;;;;1650169;85;21103;-67
2022/06/15 04:47:52;;;;;;;3.52;2.00;;;;;;;;;;1650698;85;21044;-66
2022/06/15 04:50:18;;;;;;;3.08;2.02;;;;;;;;;;1669703;84;21005;-67
2022/06/15 04:52:46;;;;;;;4.17;2.12;;;;;;;;;;1682992;83;21045;-67
2022/06/15 04:55:13;;;;;;;5.50;2.37;;;;;;;;;;1681596;84;21508;-67
2022/06/15 04:57:41;;;;;;;3.35;2.02;;;;;;;;;;1690335;84;21055;-67
2022/06/15 05:00:09;;;;;;;3.25;2.10;;;;;;;;;;1703401;84;21527;-66
2022/06/15 05:02:36;;;;;;;5.67;2.10;;;;;;;;;;1703106;83;21084;-66
2022/06/15 05:05:03;;;;;;;3.20;2.20;;;;;;;;;;1680576;84;21068;-65
2022/06/15 05:07:30;;;;;;;3.50;2.30;;;;;;;;;;1691945;84;21071;-66
2022/06/15 05:09:57;;;;;;;5.67;2.22;;;;;;;;;;1676215;85;21575;-66
2022/06/15 05:12:24;;;;;;;3.50;2.35;;;;;;;;;;1678189;84;21040;-66
2022/06/15 05:14:52;;;;;;;4.10;2.00;;;;;;;;;;1684198;84;21064;-67
2022/06/15 05:17:21;;;;;;;2.90;1.90;;;;;;;;;;1667103;84;21044;-67
2022/06/15 05:19:48;;;;;;;3.85;2.40;;;;;;;;;;1687029;84;21071;-66
2022/06/15 05:22:14;;;;;;;3.92;2.00;;;;;;;;;;1681901;84;21123;-66
2022/06/15 05:24:41;;;;;;;3.37;2.30;;;;;;;;;;1670662;84;21551;-67
2022/06/15 05:27:08;;;;;;;3.22;1.77;;;;;;;;;;1692402;84;21087;-65
2022/06/15 05:29:35;;;;;;;2.58;1.90;;;;;;;;;;1681559;84;21036;-65
2022/06/15 05:32:13;;;;;;;3.30;1.80;;;;;;;;;;1674792;84;21547;-65
2022/06/15 05:34:40;;;;;;;4.62;2.00;;;;;;;;;;1675703;84;21088;-66
2022/06/15 05:37:06;;;;;;;3.40;1.90;;;;;;;;;;1685117;84;21111;-65
2022/06/15 05:39:34;;;;;;;3.60;1.98;;;;;;;;;;1679628;84;21071;-64
2022/06/15 05:42:03;;;;;;;2.70;1.90;;;;;;;;;;1650927;86;21067;-65
2022/06/15 05:47:08;;;;;;;2.72;1.72;;;;;;;;;;1683179;84;21583;-64
2022/06/15 05:49:39;;;;;;;3.55;1.85;;;;;;;;;;1703513;83;21088;-64
2022/06/15 05:52:07;;;;;;;4.78;2.00;;;;;;;;;;1704849;84;21543;-64
2022/06/15 05:54:34;;;;;;;3.85;1.80;;;;;;;;;;1704695;84;21080;-63
2022/06/15 05:57:01;;;;;;;2.77;2.15;;;;;;;;;;1665417;84;21131;-64
2022/06/15 05:59:28;;;;;;;2.40;1.52;;;;;;;;;;1677251;84;21031;-64
2022/06/15 06:01:55;;;;;;;2.37;1.70;;;;;;;;;;1689439;83;21087;-64
2022/06/15 06:04:21;;;;;;;4.97;2.20;;;;;;;;;;1685096;84;21079;-66
2022/06/15 06:06:48;;;;;;;4.87;1.90;;;;;;;;;;1675379;84;21168;-64
2022/06/15 06:09:14;;;;;;;5.50;1.90;;;;;;;;;;1680899;84;21096;-64
2022/06/15 06:11:41;;;;;;;3.52;2.00;;;;;;;;;;1679091;84;21064;-65
2022/06/15 06:14:08;;;;;;;4.00;1.70;;;;;;;;;;1701176;84;21024;-66
2022/06/15 06:16:35;;;;;;;3.58;1.80;;;;;;;;;;1690912;84;21615;-65
2022/06/15 06:19:01;;;;;;;2.67;1.95;;;;;;;;;;1697858;84;21204;-66
2022/06/15 06:21:27;;;;;;;2.10;1.65;;;;;;;;;;1679889;84;21032;-65
2022/06/15 06:23:54;;;;;;;5.20;2.00;;;;;;;;;;1686233;84;21188;-65
2022/06/15 06:26:21;;;;;;;3.80;1.62;;;;;;;;;;1694756;84;21144;-66
2022/06/15 06:28:48;;;;;;;3.17;1.90;;;;;;;;;;1683353;84;21060;-65
2022/06/15 06:31:14;;;;;;;3.17;1.85;;;;;;;;;;1692010;84;21115;-65
2022/06/15 06:33:41;;;;;;;3.45;1.80;;;;;;;;;;1695136;84;21623;-65
2022/06/15 06:36:07;;;;;;;3.75;1.95;;;;;;;;;;1695035;84;21071;-65
2022/06/15 06:38:33;;;;;;;2.98;2.10;;;;;;;;;;1689855;84;21015;-65
2022/06/15 06:41:01;;;;;;;4.08;2.10;;;;;;;;;;1683878;84;21079;-65
2022/06/15 06:43:27;;;;;;;3.90;1.82;;;;;;;;;;1704996;84;21025;-65
2022/06/15 06:45:54;;;;;;;3.50;1.82;;;;;;;;;;1696480;84;21028;-65
2022/06/15 06:48:19;;;;;;;3.22;1.98;;;;;;;;;;1698922;84;21045;-65
2022/06/15 06:50:46;;;;;;;2.80;1.90;;;;;;;;;;1704673;84;21104;-64
2022/06/15 06:53:13;;;;;;;2.90;1.92;;;;;;;;;;1703979;84;21021;-65
2022/06/15 06:55:39;;;;;;;4.15;1.80;;;;;;;;;;1704257;84;21059;-65
2022/06/15 06:58:05;;;;;;;7.65;2.10;;;;;;;;;;1681453;84;21079;-65
2022/06/15 07:00:33;;;;;;;3.47;1.82;;;;;;;;;;1676219;85;21075;-64
2022/06/15 07:03:00;;;;;;;2.85;1.82;;;;;;;;;;1670554;84;21074;-64
2022/06/15 07:05:26;;;;;;;2.47;1.57;;;;;;;;;;1674158;84;21076;-64
2022/06/15 07:07:52;;;;;;;4.87;1.90;;;;;;;;;;1682935;84;21036;-65
2022/06/15 07:10:19;;;;;;;2.60;1.90;;;;;;;;;;1681443;84;22340;-65
2022/06/15 07:12:46;;;;;;;3.65;1.87;;;;;;;;;;1672000;84;21048;-65
2022/06/15 07:15:13;;;;;;;4.17;1.87;;;;;;;;;;1678799;85;21059;-65
2022/06/15 07:17:40;;;;;;;3.45;1.80;;;;;;;;;;1679865;84;21659;-65
2022/06/15 07:20:08;;;;;;;3.77;1.70;;;;;;;;;;1682266;84;21132;-64
2022/06/15 07:22:34;;;;;;;4.78;1.98;;;;;;;;;;1679779;84;21184;-65
2022/06/15 07:25:01;;;;;;;3.27;2.10;;;;;;;;;;1685365;84;22100;-65
2022/06/15 07:27:28;;;;;;;6.87;2.00;;;;;;;;;;1681773;84;21017;-65
2022/06/15 07:29:55;;;;;;;3.27;2.05;;;;;;;;;;1687439;84;21079;-64
2022/06/15 07:35:04;;;;;;;4.28;2.10;;;;;;;;;;1798038;79;22919;-66
2022/06/15 07:37:30;;;;;;;3.25;1.92;;;;;;;;;;1757045;81;21060;-64
2022/06/15 07:39:57;;;;;;;5.35;2.75;;;;;;;;;;1760513;81;21741;-64
2022/06/15 07:42:24;;;;;;;3.02;2.12;;;;;;;;;;1760997;80;21030;-64
2022/06/15 07:44:52;;;;;;;3.55;1.92;;;;;;;;;;1761831;81;20994;-63
2022/06/15 07:50:04;;;;;;;2.67;2.12;;;;;;;;;;1758917;81;21537;-65
2022/06/15 07:52:32;;;;;;;3.33;1.80;;;;;;;;;;1765668;80;21535;-64
2022/06/15 07:54:58;;;;;;;3.67;1.75;;;;;;;;;;1761275;81;21116;-64
2022/06/15 07:57:24;;;;;;;2.37;1.77;;;;;;;;;;1761074;80;21016;-64
2022/06/15 07:59:50;;;;;;;2.60;1.70;;;;;;;;;;1757460;81;21025;-64
2022/06/15 08:02:17;;;;;;;2.42;1.62;;;;;;;;;;1759675;80;21303;-64
2022/06/15 08:04:44;;;;;;;5.33;1.80;;;;;;;;;;1735155;82;21032;-64
2022/06/15 08:07:11;;;;;;;4.25;2.10;;;;;;;;;;1740570;81;21017;-64
2022/06/15 08:09:38;;;;;;;2.72;1.72;;;;;;;;;;1736033;82;21060;-65
2022/06/15 08:12:19;;;;;;;4.45;1.70;;;;;;;;;;1731344;82;21111;-64
2022/06/15 08:14:46;;;;;;;2.37;1.50;;;;;;;;;;1736554;82;21095;-64
2022/06/15 08:17:16;;;;;;;4.45;1.70;;;;;;;;;;1740889;82;21096;-63
2022/06/15 08:19:42;;;;;;;2.55;1.62;;;;;;;;;;1709637;83;21071;-63
2022/06/15 08:22:09;;;;;;;2.27;1.80;;;;;;;;;;1684400;84;21033;-64
2022/06/15 08:24:35;;;;;;;3.37;1.80;;;;;;;;;;1691881;84;21071;-63
2022/06/15 08:27:01;;;;;;;2.12;1.67;;;;;;;;;;1684910;84;21055;-65
2022/06/15 08:29:28;;;;;;;4.37;1.65;;;;;;;;;;1694851;84;21058;-64
2022/06/15 08:31:57;;;;;;;4.87;1.90;;;;;;;;;;1715679;83;21034;-64
2022/06/15 08:34:24;;;;;;;2.75;1.72;;;;;;;;;;1707179;83;21025;-65
2022/06/15 08:36:51;;;;;;;4.05;1.90;;;;;;;;;;1723562;82;21078;-65
2022/06/15 08:39:18;;;;;;;4.53;1.60;;;;;;;;;;1714146;82;20993;-64
2022/06/15 08:42:01;;;;;;;2.00;1.65;;;;;;;;;;1733031;82;21481;-64
2022/06/15 08:44:31;;;;;;;3.08;1.75;;;;;;;;;;1712076;82;21737;-65
2022/06/15 08:47:08;;;;;;;3.05;1.70;;;;;;;;;;1717557;82;21092;-63
2022/06/15 08:49:53;;;;;;;2.62;1.50;;;;;;;;;;1739066;82;21604;-63
2022/06/15 08:52:21;;;;;;;8.53;2.25;;;;;;;;;;1734460;82;21072;-65
2022/06/15 08:54:49;;;;;;;7.22;1.75;;;;;;;;;;1735735;82;21112;-65
2022/06/15 08:57:17;;;;;;;2.83;1.50;;;;;;;;;;1735664;82;20993;-64
2022/06/15 08:59:50;;;;;;;2.65;1.80;;;;;;;;;;1704649;82;21047;-66
2022/06/15 09:02:35;;;;;;;3.22;1.70;;;;;;;;;;1730071;82;21092;-64
2022/06/15 09:05:06;;;;;;;5.95;1.72;;;;;;;;;;1732196;82;20997;-64
2022/06/15 09:07:40;;;;;;;3.62;1.50;;;;;;;;;;1711558;82;21126;-66
2022/06/15 09:10:08;;;;;;;3.33;1.60;;;;;;;;;;1695159;84;21813;-66
2022/06/15 09:12:58;;;;;;;2.10;1.67;;;;;;;;;;1703632;82;21525;-66
2022/06/15 09:15:42;;;;;;;5.12;1.77;;;;;;;;;;1730947;82;21094;-64
2022/06/15 09:18:18;;;;;;;3.15;1.70;;;;;;;;;;1706019;82;21062;-65
2022/06/15 09:20:46;;;;;;;2.37;1.65;;;;;;;;;;1712355;82;21084;-65
2022/06/15 09:23:23;;;;;;;2.08;1.50;;;;;;;;;;1738869;82;21053;-66
2022/06/15 09:25:51;;;;;;;6.00;1.70;;;;;;;;;;1731939;82;21055;-66
2022/06/15 09:28:25;;;;;;;4.15;1.50;;;;;;;;;;1739247;82;21053;-71
2022/06/15 09:30:51;;;;;;;4.90;1.57;;;;;;;;;;1739764;81;21045;-65
2022/06/15 09:33:32;;;;;;;5.33;1.80;;;;;;;;;;1739588;81;22112;-65
2022/06/15 09:36:02;;;;;;;4.05;1.70;;;;;;;;;;1739690;82;21237;-65
2022/06/15 09:38:31;;;;;;;8.48;1.98;;;;;;;;;;1738102;82;21086;-65
2022/06/15 09:40:59;;;;;;;7.95;1.60;;;;;;;;;;1711108;82;21068;-65
2022/06/15 09:43:27;;;;;;;1.75;1.65;;;;;;;;;;1722395;82;21061;-65
2022/06/15 09:46:08;;;;;;;5.03;1.75;;;;;;;;;;1730407;82;21212;-65
2022/06/15 09:48:44;;;;;;;2.42;1.50;;;;;;;;;;1729957;82;21500;-66
2022/06/15 09:51:12;;;;;;;4.00;1.70;;;;;;;;;;1737462;81;21021;-66
2022/06/15 09:53:43;;;;;;;5.58;1.65;;;;;;;;;;1710091;84;21643;-65
2022/06/15 09:56:11;;;;;;;2.12;1.40;;;;;;;;;;1725035;82;21112;-67
2022/06/15 09:58:39;;;;;;;3.70;1.52;;;;;;;;;;1732988;82;21069;-65
2022/06/15 10:01:06;;;;;;;1.65;1.30;;;;;;;;;;1725264;82;21037;-66
2022/06/15 10:03:34;;;;;;;4.22;1.60;;;;;;;;;;1722117;82;21005;-65
2022/06/15 10:06:01;;;;;;;1.75;1.32;;;;;;;;;;1729876;82;21029;-65
2022/06/15 10:08:27;;;;;;;3.17;1.55;;;;;;;;;;1739501;82;21021;-65
2022/06/15 10:10:55;;;;;;;3.25;1.60;;;;;;;;;;1739487;82;21501;-65
2022/06/15 10:13:23;;;;;;;3.80;1.52;;;;;;;;;;1737535;82;21057;-66
2022/06/15 10:15:51;;;;;;;2.30;1.40;;;;;;;;;;1737740;82;21029;-66
2022/06/15 10:18:36;;;;;;;1.85;1.37;;;;;;;;;;1729682;82;22179;-66
2022/06/15 10:21:05;;;;;;;5.55;1.50;;;;;;;;;;1725985;82;21048;-65
2022/06/15 10:23:33;;;;;;;1.30;1.20;;;;;;;;;;1721113;82;21064;-67
2022/06/15 10:25:59;;;;;;;2.08;1.30;;;;;;;;;;1736320;82;21045;-66
2022/06/15 10:28:27;;;;;;;2.98;1.40;;;;;;;;;;1742811;82;21047;-66
2022/06/15 10:31:00;;;;;;;2.62;1.50;;;;;;;;;;1730868;82;21092;-68
2022/06/15 10:33:37;;;;;;;1.92;1.55;;;;;;;;;;1737691;82;21009;-66
2022/06/15 10:36:03;;;;;;;2.30;1.60;;;;;;;;;;1712884;82;21079;-66
2022/06/15 10:38:29;;;;;;;2.75;1.40;;;;;;;;;;1713529;82;20958;-65
2022/06/15 10:41:45;;;;;;;1.95;1.42;;;;;;;;;;1726540;82;21555;-66
2022/06/15 10:43:29;;;;;;;1.92;1.70;;;;;;;;;;1711880;82;21037;-65
2022/06/15 10:45:58;;;;;;;1.65;1.35;;;;;;;;;;1723657;82;21060;-65
2022/06/15 10:48:38;;;;;;;1.52;1.35;;;;;;;;;;1736932;82;20970;-65
2022/06/15 10:51:23;;;;;;;1.60;1.50;;;;;;;;;;1734930;82;21025;-65
2022/06/15 10:53:52;;;;;;;3.08;1.70;;;;;;;;;;1712381;82;21072;-65
2022/06/15 11:02:07;;;;;;;2.05;1.70;;;;;;;;;;1709855;84;21101;-64
2022/06/15 11:04:35;;;;;;;2.62;1.37;;;;;;;;;;1731176;82;21604;-64
2022/06/15 11:07:07;;;;;;;2.37;1.57;;;;;;;;;;1730959;82;21039;-65
2022/06/15 11:09:34;;;;;;;1.62;1.30;;;;;;;;;;1714137;82;21033;-65
2022/06/15 11:12:02;;;;;;;1.50;1.30;;;;;;;;;;1725159;82;21116;-65
2022/06/15 11:14:33;;;;;;;1.87;1.40;;;;;;;;;;1710299;83;21631;-64
2022/06/15 11:20:06;;;;;;;3.87;1.52;;;;;;;;;;1743975;82;21012;-64
2022/06/15 11:22:33;;;;;;;2.65;1.15;;;;;;;;;;1739128;82;21033;-65
2022/06/15 11:25:01;;;;;;;3.58;1.40;;;;;;;;;;1726876;82;21633;-65
2022/06/15 11:27:33;;;;;;;2.80;1.70;;;;;;;;;;1718168;82;21009;-66
2022/06/15 11:30:14;;;;;;;2.12;1.30;;;;;;;;;;1702619;84;21347;-66
2022/06/15 11:32:54;;;;;;;1.67;1.52;;;;;;;;;;1673983;86;21132;-65
2022/06/15 11:35:22;;;;;;;2.22;1.25;;;;;;;;;;1744440;81;21087;-65
2022/06/15 11:37:51;;;;;;;2.77;1.50;;;;;;;;;;1732421;82;21112;-66
2022/06/15 11:40:25;;;;;;;1.87;1.55;;;;;;;;;;1726933;82;21096;-66
2022/06/15 11:42:53;;;;;;;1.50;1.40;;;;;;;;;;1753490;82;21006;-66
2022/06/15 11:45:23;;;;;;;3.50;1.60;;;;;;;;;;1753496;82;21028;-65
2022/06/15 11:47:54;;;;;;;2.30;1.60;;;;;;;;;;1750592;82;21036;-66
2022/06/15 11:50:22;;;;;;;3.15;1.62;;;;;;;;;;1751320;82;21053;-65
2022/06/15 11:52:50;;;;;;;2.92;1.50;;;;;;;;;;1722288;83;21573;-65
2022/06/15 11:55:17;;;;;;;1.40;1.30;;;;;;;;;;1745508;82;21563;-65
2022/06/15 11:58:01;;;;;;;2.80;1.55;;;;;;;;;;1741340;82;21052;-66
2022/06/15 12:00:34;;;;;;;4.17;1.50;;;;;;;;;;1723963;82;21057;-66
2022/06/15 12:03:02;;;;;;;2.35;1.40;;;;;;;;;;1749297;82;22097;-66
2022/06/15 12:05:36;;;;;;;3.67;1.30;;;;;;;;;;1741116;81;21004;-66
2022/06/15 12:08:07;;;;;;;2.95;1.50;;;;;;;;;;1729535;82;20989;-66
2022/06/15 12:10:42;;;;;;;2.08;1.40;;;;;;;;;;1729750;82;21558;-65
2022/06/15 12:13:11;;;;;;;2.92;1.50;;;;;;;;;;1751490;81;21083;-65
2022/06/15 12:15:48;;;;;;;3.00;1.52;;;;;;;;;;1737744;82;21037;-64
2022/06/15 12:18:15;;;;;;;1.52;1.30;;;;;;;;;;1733089;82;21000;-65
2022/06/15 12:21:00;;;;;;;3.85;1.67;;;;;;;;;;1750543;82;21017;-64
2022/06/15 12:23:32;;;;;;;2.52;1.37;;;;;;;;;;1747214;82;21009;-65
2022/06/15 12:26:02;;;;;;;2.55;1.37;;;;;;;;;;1743974;82;21200;-65
2022/06/15 12:28:37;;;;;;;2.45;1.47;;;;;;;;;;1709837;82;21005;-65
2022/06/15 12:31:06;;;;;;;1.50;1.40;;;;;;;;;;1735643;82;21454;-65
2022/06/15 12:33:39;;;;;;;2.00;1.25;;;;;;;;;;1717603;82;21009;-65
2022/06/15 12:36:26;;;;;;;1.42;1.32;;;;;;;;;;1739488;82;21056;-64
2022/06/15 12:38:57;;;;;;;2.20;1.50;;;;;;;;;;1741139;82;21509;-64
2022/06/15 12:44:14;;;;;;;1.30;1.20;;;;;;;;;;1752418;82;21021;-65
2022/06/15 12:46:40;;;;;;;3.25;1.47;;;;;;;;;;1740265;82;21038;-65
2022/06/15 12:49:27;;;;;;;3.30;1.40;;;;;;;;;;1732158;82;21543;-65
2022/06/15 12:52:12;;;;;;;3.85;1.67;;;;;;;;;;1734064;82;21149;-64
2022/06/15 12:54:40;;;;;;;3.72;1.90;;;;;;;;;;1724443;82;21056;-65
2022/06/15 12:57:11;;;;;;;2.52;2.02;;;;;;;;;;1744486;82;20977;-64
2022/06/15 12:59:56;;;;;;;2.67;1.42;;;;;;;;;;1738621;82;21104;-65
2022/06/15 13:02:24;;;;;;;1.35;1.17;;;;;;;;;;1735691;82;21109;-65
2022/06/15 13:05:11;;;;;;;1.72;1.37;;;;;;;;;;1700119;84;21043;-65
2022/06/15 13:07:39;;;;;;;2.92;1.70;;;;;;;;;;1692461;84;21550;-65
2022/06/15 13:10:10;;;;;;;4.85;1.60;;;;;;;;;;1706015;84;21016;-65
2022/06/15 13:12:42;;;;;;;2.10;1.53;;;;;;;;;;1702423;84;21173;-65
2022/06/15 13:15:17;;;;;;;3.02;1.52;;;;;;;;;;1706063;84;21071;-65
2022/06/15 13:18:04;;;;;;;2.17;1.32;;;;;;;;;;1671404;84;21046;-65
2022/06/15 13:20:18;;;;;;;2.15;1.50;;;;;;;;;;1695731;84;21051;-65
2022/06/15 13:22:45;;;;;;;1.90;1.50;;;;;;;;;;1704906;84;21043;-65
2022/06/15 13:25:12;;;;;;;4.33;1.50;;;;;;;;;;1693293;84;21050;-65
2022/06/15 13:27:43;;;;;;;1.50;1.40;;;;;;;;;;1687802;84;21011;-65
2022/06/15 13:30:23;;;;;;;2.30;1.67;;;;;;;;;;1698884;84;21031;-65
2022/06/15 13:32:50;;;;;;;1.75;1.42;;;;;;;;;;1705272;84;21009;-65
2022/06/15 13:35:41;;;;;;;2.47;1.30;;;;;;;;;;1700887;84;21473;-65
2022/06/15 13:38:26;;;;;;;2.98;1.50;;;;;;;;;;1678612;84;21044;-65
2022/06/15 13:41:00;;;;;;;2.08;1.42;;;;;;;;;;1693919;84;21060;-65
2022/06/15 13:43:43;;;;;;;2.20;1.60;;;;;;;;;;1687814;84;20997;-65
2022/06/15 13:46:22;;;;;;;2.35;1.70;;;;;;;;;;1671744;84;21108;-64
2022/06/15 13:48:48;;;;;;;3.75;1.60;;;;;;;;;;1681843;84;21033;-66
2022/06/15 13:51:16;;;;;;;3.20;1.67;;;;;;;;;;1692857;84;21068;-65
2022/06/15 13:53:53;;;;;;;2.55;1.60;;;;;;;;;;1688715;84;22426;-64
2022/06/15 13:56:20;;;;;;;5.65;1.80;;;;;;;;;;1698008;84;20989;-65
2022/06/15 13:58:49;;;;;;;3.50;1.60;;;;;;;;;;1673996;84;21041;-64
2022/06/15 14:01:17;;;;;;;1.52;1.30;;;;;;;;;;1699417;83;21155;-65
2022/06/15 14:03:48;;;;;;;5.62;1.60;;;;;;;;;;1677830;84;21036;-66
2022/06/15 14:06:17;;;;;;;4.75;2.15;;;;;;;;;;1723630;82;21536;-65
2022/06/15 14:08:56;;;;;;;4.53;1.82;;;;;;;;;;1739188;82;21108;-65
2022/06/15 14:11:34;;;;;;;6.97;2.00;;;;;;;;;;1720696;82;21050;-65
2022/06/15 14:14:18;;;;;;;1.70;1.40;;;;;;;;;;1740836;82;21050;-65
2022/06/15 14:16:46;;;;;;;3.52;1.55;;;;;;;;;;1747481;82;21069;-64
2022/06/15 14:19:30;;;;;;;2.65;1.75;;;;;;;;;;1732064;82;21116;-64
2022/06/15 14:22:07;;;;;;;4.12;1.92;;;;;;;;;;1735073;82;21510;-65
2022/06/15 14:24:33;;;;;;;4.45;2.00;;;;;;;;;;1742176;82;21055;-65
2022/06/15 14:27:02;;;;;;;3.42;1.70;;;;;;;;;;1734818;82;21001;-65
2022/06/15 14:29:32;;;;;;;2.20;1.70;;;;;;;;;;1731058;82;20979;-65
2022/06/15 14:31:58;;;;;;;6.22;1.87;;;;;;;;;;1724835;82;21005;-65
2022/06/15 14:34:25;;;;;;;2.47;1.87;;;;;;;;;;1736938;82;21004;-65
2022/06/15 14:36:56;;;;;;;5.42;1.70;;;;;;;;;;1745061;81;21530;-64
2022/06/15 14:39:30;;;;;;;2.67;1.87;;;;;;;;;;1753281;81;21041;-64
2022/06/15 14:42:06;;;;;;;7.17;2.27;;;;;;;;;;1745260;82;20987;-65
2022/06/15 14:44:33;;;;;;;3.65;2.17;;;;;;;;;;1736841;82;21058;-65
2022/06/15 14:47:00;;;;;;;5.28;2.02;;;;;;;;;;1751926;81;21069;-65
2022/06/15 14:49:29;;;;;;;5.47;2.27;;;;;;;;;;1749549;82;21040;-65
2022/06/15 14:52:09;;;;;;;9.45;2.20;;;;;;;;;;1752382;82;21532;-66
2022/06/15 14:54:36;;;;;;;12.58;2.70;;;;;;;;;;1745719;81;21003;-67
2022/06/15 14:57:04;;;;;;;4.45;2.22;;;;;;;;;;1751881;82;21048;-64
2022/06/15 14:59:44;;;;;;;8.98;2.72;;;;;;;;;;1727214;81;21564;-65
2022/06/15 15:02:10;;;;;;;8.98;2.40;;;;;;;;;;1725857;82;21112;-65
2022/06/15 15:04:42;;;;;;;4.03;2.02;;;;;;;;;;1741529;82;21056;-65
2022/06/15 15:09:55;;;;;;;2.55;1.80;;;;;;;;;;1748839;82;21118;-65
2022/06/15 15:12:24;;;;;;;3.12;2.00;;;;;;;;;;1749404;82;21067;-65
2022/06/15 15:14:52;;;;;;;3.25;1.90;;;;;;;;;;1746441;82;21053;-63
2022/06/15 15:17:19;;;;;;;1.98;1.77;;;;;;;;;;1743060;81;21033;-64
2022/06/15 15:19:46;;;;;;;2.77;1.85;;;;;;;;;;1741397;81;21036;-65
2022/06/15 15:22:14;;;;;;;2.75;1.90;;;;;;;;;;1739301;82;21011;-65
2022/06/15 15:24:48;;;;;;;3.83;2.10;;;;;;;;;;1728260;82;21035;-65
2022/06/15 15:27:18;;;;;;;2.60;1.85;;;;;;;;;;1739575;81;21067;-65